sensor_id;sensor_type;location;lat;lon;timestamp;pressure;altitude;pressure_sealevel;temperature;humidity
60433;BME280;46286;48.098;11.590;2023-03-21T00:02:01;95711.63;;;5.78;100.00
60433;BME280;46286;48.098;11.590;2023-03-21T00:04:27;95708.63;;;5.86;100.00
60433;BME280;46286;48.098;11.590;2023-03-21T00:06:53;95708.06;;;5.84;100.00
60433;BME280;46286;48.098;11.590;2023-03-21T00:09:19;95698.50;;;5.89;100.00
60433;BME280;46286;48.098;11.590;2023-03-21T00:11:46;95694.75;;;5.97;100.00
60433;BME280;46286;48.098;11.590;2023-03-21T00:14:13;95694.06;;;5.90;100.00
60433;BME280;46286;48.098;11.590;2023-03-21T00:16:45;95693.75;;;5.86;100.00
60433;BME280;46286;48.098;11.590;2023-03-21T00:19:17;95690.56;;;5.84;100.00
60433;BME280;46286;48.098;11.590;2023-03-21T00:21:45;95667.47;;;5.76;100.00
60433;BME280;46286;48.098;11.590;2023-03-21T00:24:10;95687.72;;;5.86;100.00
60433;BME280;46286;48.098;11.590;2023-03-21T00:26:36;95685.03;;;5.81;100.00
60433;BME280;46286;48.098;11.590;2023-03-21T00:29:02;95687.06;;;5.79;100.00
60433;BME280;46286;48.098;11.590;2023-03-21T00:31:28;95680.28;;;5.78;100.00
60433;BME280;46286;48.098;11.590;2023-03-21T00:33:53;95672.81;;;5.69;100.00
60433;BME280;46286;48.098;11.590;2023-03-21T00:36:19;95681.66;;;5.68;100.00
60433;BME280;46286;48.098;11.590;2023-03-21T00:38:45;95677.69;;;5.66;100.00
60433;BME280;46286;48.098;11.590;2023-03-21T00:41:12;95675.91;;;5.66;100.00
60433;BME280;46286;48.098;11.590;2023-03-21T00:43:39;95667.41;;;5.59;100.00
60433;BME280;46286;48.098;11.590;2023-03-21T00:46:05;95667.88;;;5.56;100.00
60433;BME280;46286;48.098;11.590;2023-03-21T00:48:31;95674.66;;;5.57;100.00
60433;BME280;46286;48.098;11.590;2023-03-21T00:50:57;95662.44;;;5.58;100.00
60433;BME280;46286;48.098;11.590;2023-03-21T00:53:25;95669.69;;;5.55;100.00
60433;BME280;46286;48.098;11.590;2023-03-21T00:55:51;95663.09;;;5.53;100.00
60433;BME280;46286;48.098;11.590;2023-03-21T00:58:17;95658.81;;;5.47;100.00
60433;BME280;46286;48.098;11.590;2023-03-21T01:00:43;95659.47;;;5.54;100.00
60433;BME280;46286;48.098;11.590;2023-03-21T01:03:15;95659.00;;;5.57;100.00
60433;BME280;46286;48.098;11.590;2023-03-21T01:05:46;95660.72;;;5.51;100.00
60433;BME280;46286;48.098;11.590;2023-03-21T01:08:36;95654.25;;;5.54;100.00
60433;BME280;46286;48.098;11.590;2023-03-21T01:11:09;95645.88;;;5.52;100.00
60433;BME280;46286;48.098;11.590;2023-03-21T01:13:35;95644.53;;;5.49;100.00
60433;BME280;46286;48.098;11.590;2023-03-21T01:16:03;95643.34;;;5.57;100.00
60433;BME280;46286;48.098;11.590;2023-03-21T01:18:30;95643.81;;;5.54;100.00
60433;BME280;46286;48.098;11.590;2023-03-21T01:20:58;95650.16;;;5.58;100.00
60433;BME280;46286;48.098;11.590;2023-03-21T01:23:26;95640.19;;;5.55;100.00
60433;BME280;46286;48.098;11.590;2023-03-21T01:25:53;95634.50;;;5.58;100.00
60433;BME280;46286;48.098;11.590;2023-03-21T01:28:19;95644.28;;;5.51;100.00
60433;BME280;46286;48.098;11.590;2023-03-21T01:30:46;95639.53;;;5.48;100.00
60433;BME280;46286;48.098;11.590;2023-03-21T01:33:13;95642.22;;;5.53;100.00
60433;BME280;46286;48.098;11.590;2023-03-21T01:35:39;95633.59;;;5.52;100.00
60433;BME280;46286;48.098;11.590;2023-03-21T01:38:04;95638.59;;;5.54;100.00
60433;BME280;46286;48.098;11.590;2023-03-21T01:40:30;95634.72;;;5.57;100.00
60433;BME280;46286;48.098;11.590;2023-03-21T01:42:55;95634.84;;;5.62;100.00
60433;BME280;46286;48.098;11.590;2023-03-21T01:48:26;95626.31;;;5.54;100.00
60433;BME280;46286;48.098;11.590;2023-03-21T01:50:54;95618.84;;;5.58;100.00
60433;BME280;46286;48.098;11.590;2023-03-21T01:53:23;95617.25;;;5.57;100.00
60433;BME280;46286;48.098;11.590;2023-03-21T01:56:11;95616.13;;;5.53;100.00
60433;BME280;46286;48.098;11.590;2023-03-21T01:58:40;95608.53;;;5.51;100.00
60433;BME280;46286;48.098;11.590;2023-03-21T02:01:07;95608.88;;;5.55;100.00
60433;BME280;46286;48.098;11.590;2023-03-21T02:03:33;95611.47;;;5.55;100.00
60433;BME280;46286;48.098;11.590;2023-03-21T02:06:51;95615.75;;;5.61;100.00
60433;BME280;46286;48.098;11.590;2023-03-21T02:09:21;95611.53;;;5.60;100.00
60433;BME280;46286;48.098;11.590;2023-03-21T02:11:48;95613.13;;;5.61;100.00
60433;BME280;46286;48.098;11.590;2023-03-21T02:14:17;95607.59;;;5.58;100.00
60433;BME280;46286;48.098;11.590;2023-03-21T02:16:51;95608.38;;;5.58;100.00
60433;BME280;46286;48.098;11.590;2023-03-21T02:27:18;95610.91;;;5.53;100.00
60433;BME280;46286;48.098;11.590;2023-03-21T02:30:14;95613.44;;;5.48;100.00
60433;BME280;46286;48.098;11.590;2023-03-21T02:40:52;95622.56;;;5.62;100.00
60433;BME280;46286;48.098;11.590;2023-03-21T02:43:42;95615.69;;;5.56;100.00
60433;BME280;46286;48.098;11.590;2023-03-21T02:46:13;95616.75;;;5.60;100.00
60433;BME280;46286;48.098;11.590;2023-03-21T02:48:55;95618.50;;;5.54;100.00
60433;BME280;46286;48.098;11.590;2023-03-21T02:51:22;95612.50;;;5.54;100.00
60433;BME280;46286;48.098;11.590;2023-03-21T02:53:58;95612.50;;;5.54;100.00
60433;BME280;46286;48.098;11.590;2023-03-21T02:56:26;95606.16;;;5.50;100.00
60433;BME280;46286;48.098;11.590;2023-03-21T02:58:52;95609.81;;;5.49;100.00
60433;BME280;46286;48.098;11.590;2023-03-21T03:01:18;95610.91;;;5.53;100.00
60433;BME280;46286;48.098;11.590;2023-03-21T03:03:44;95623.41;;;5.51;100.00
60433;BME280;46286;48.098;11.590;2023-03-21T03:06:21;95605.84;;;5.46;100.00
60433;BME280;46286;48.098;11.590;2023-03-21T03:11:32;95609.16;;;5.42;100.00
60433;BME280;46286;48.098;11.590;2023-03-21T03:17:34;95609.81;;;5.49;100.00
60433;BME280;46286;48.098;11.590;2023-03-21T03:20:21;95612.97;;;5.51;100.00
60433;BME280;46286;48.098;11.590;2023-03-21T03:22:57;95605.13;;;5.51;100.00
60433;BME280;46286;48.098;11.590;2023-03-21T03:25:31;95598.25;;;5.45;100.00
60433;BME280;46286;48.098;11.590;2023-03-21T03:28:01;95603.47;;;5.45;100.00
60433;BME280;46286;48.098;11.590;2023-03-21T03:30:30;95604.78;;;5.47;100.00
60433;BME280;46286;48.098;11.590;2023-03-21T03:32:58;95599.81;;;5.46;100.00
60433;BME280;46286;48.098;11.590;2023-03-21T03:35:27;95597.44;;;5.44;100.00
60433;BME280;46286;48.098;11.590;2023-03-21T03:37:56;95600.38;;;5.48;100.00
60433;BME280;46286;48.098;11.590;2023-03-21T03:40:29;95595.88;;;5.43;100.00
60433;BME280;46286;48.098;11.590;2023-03-21T03:43:01;95594.28;;;5.42;100.00
60433;BME280;46286;48.098;11.590;2023-03-21T03:45:33;95594.75;;;5.39;100.00
60433;BME280;46286;48.098;11.590;2023-03-21T03:48:07;95601.78;;;5.38;100.00
60433;BME280;46286;48.098;11.590;2023-03-21T03:50:42;95591.91;;;5.41;100.00
60433;BME280;46286;48.098;11.590;2023-03-21T03:53:18;95590.78;;;5.36;100.00
60433;BME280;46286;48.098;11.590;2023-03-21T03:55:47;95595.53;;;5.40;100.00
60433;BME280;46286;48.098;11.590;2023-03-21T03:58:17;95600.47;;;5.53;100.00
60433;BME280;46286;48.098;11.590;2023-03-21T04:00:44;95594.47;;;5.52;100.00
60433;BME280;46286;48.098;11.590;2023-03-21T04:03:10;95599.19;;;5.55;100.00
60433;BME280;46286;48.098;11.590;2023-03-21T04:05:35;95600.47;;;5.53;100.00
60433;BME280;46286;48.098;11.590;2023-03-21T04:08:02;95598.91;;;5.52;100.00
60433;BME280;46286;48.098;11.590;2023-03-21T04:10:27;95601.75;;;5.50;100.00
60433;BME280;46286;48.098;11.590;2023-03-21T04:12:53;95601.41;;;5.47;100.00
60433;BME280;46286;48.098;11.590;2023-03-21T04:15:19;95598.25;;;5.45;100.00
60433;BME280;46286;48.098;11.590;2023-03-21T04:17:44;95594.59;;;5.46;100.00
60433;BME280;46286;48.098;11.590;2023-03-21T04:20:10;95595.88;;;5.43;100.00
60433;BME280;46286;48.098;11.590;2023-03-21T04:22:36;95589.38;;;5.46;100.00
60433;BME280;46286;48.098;11.590;2023-03-21T04:25:02;95592.94;;;5.40;100.00
60433;BME280;46286;48.098;11.590;2023-03-21T04:27:30;95593.56;;;5.47;100.00
60433;BME280;46286;48.098;11.590;2023-03-21T04:29:57;95588.94;;;5.49;100.00
60433;BME280;46286;48.098;11.590;2023-03-21T04:32:22;95584.16;;;5.46;100.00
60433;BME280;46286;48.098;11.590;2023-03-21T04:34:51;95582.59;;;5.45;100.00
60433;BME280;46286;48.098;11.590;2023-03-21T04:37:19;95587.00;;;5.44;100.00
60433;BME280;46286;48.098;11.590;2023-03-21T04:39:46;95586.22;;;5.44;100.00
60433;BME280;46286;48.098;11.590;2023-03-21T04:42:16;95587.00;;;5.44;100.00
60433;BME280;46286;48.098;11.590;2023-03-21T04:44:44;95585.09;;;5.40;100.00
60433;BME280;46286;48.098;11.590;2023-03-21T04:47:09;95588.72;;;5.38;100.00
60433;BME280;46286;48.098;11.590;2023-03-21T04:49:35;95583.50;;;5.38;100.00
60433;BME280;46286;48.098;11.590;2023-03-21T04:52:01;95575.91;;;5.37;100.00
60433;BME280;46286;48.098;11.590;2023-03-21T04:54:27;95580.34;;;5.36;100.00
60433;BME280;46286;48.098;11.590;2023-03-21T04:56:52;95574.00;;;5.32;100.00
60433;BME280;46286;48.098;11.590;2023-03-21T04:59:18;95579.22;;;5.32;100.00
60433;BME280;46286;48.098;11.590;2023-03-21T05:01:44;95582.06;;;5.31;100.00
60433;BME280;46286;48.098;11.590;2023-03-21T05:04:12;95583.19;;;5.35;100.00
60433;BME280;46286;48.098;11.590;2023-03-21T05:06:38;95586.59;;;5.35;100.00
60433;BME280;46286;48.098;11.590;2023-03-21T05:09:04;95586.97;;;5.27;100.00
60433;BME280;46286;48.098;11.590;2023-03-21T05:11:33;95584.75;;;5.19;100.00
60433;BME280;46286;48.098;11.590;2023-03-21T05:14:00;95577.94;;;5.18;100.00
60433;BME280;46286;48.098;11.590;2023-03-21T05:16:26;95591.63;;;5.25;100.00
60433;BME280;46286;48.098;11.590;2023-03-21T05:18:58;95586.53;;;5.18;100.00
60433;BME280;46286;48.098;11.590;2023-03-21T05:21:28;95581.09;;;5.20;100.00
60433;BME280;46286;48.098;11.590;2023-03-21T05:23:59;95580.00;;;5.16;100.00
60433;BME280;46286;48.098;11.590;2023-03-21T05:26:28;95576.34;;;5.17;100.00
60433;BME280;46286;48.098;11.590;2023-03-21T05:28:54;95586.53;;;5.18;100.00
60433;BME280;46286;48.098;11.590;2023-03-21T05:31:20;95588.38;;;5.18;100.00
60433;BME280;46286;48.098;11.590;2023-03-21T05:33:46;95584.25;;;5.22;100.00
60433;BME280;46286;48.098;11.590;2023-03-21T05:36:13;95583.81;;;5.25;100.00
60433;BME280;46286;48.098;11.590;2023-03-21T05:38:39;95575.50;;;5.28;100.00
60433;BME280;46286;48.098;11.590;2023-03-21T05:41:10;95576.38;;;5.34;100.00
60433;BME280;46286;48.098;11.590;2023-03-21T05:43:36;95577.19;;;5.34;100.00
60433;BME280;46286;48.098;11.590;2023-03-21T05:46:01;95581.94;;;5.37;100.00
60433;BME280;46286;48.098;11.590;2023-03-21T05:48:27;95588.28;;;5.42;100.00
60433;BME280;46286;48.098;11.590;2023-03-21T05:50:53;95593.03;;;5.45;100.00
60433;BME280;46286;48.098;11.590;2023-03-21T05:53:18;95598.78;;;5.47;100.00
60433;BME280;46286;48.098;11.590;2023-03-21T05:55:44;95592.56;;;5.48;100.00
60433;BME280;46286;48.098;11.590;2023-03-21T05:58:10;95590.50;;;5.50;100.00
60433;BME280;46286;48.098;11.590;2023-03-21T06:00:35;95597.56;;;5.66;100.00
60433;BME280;46286;48.098;11.590;2023-03-21T06:03:01;95598.75;;;5.76;100.00
60433;BME280;46286;48.098;11.590;2023-03-21T06:05:26;95596.25;;;5.81;100.00
60433;BME280;46286;48.098;11.590;2023-03-21T06:07:52;95599.56;;;5.93;100.00
60433;BME280;46286;48.098;11.590;2023-03-21T06:10:17;95596.59;;;6.01;100.00
60433;BME280;46286;48.098;11.590;2023-03-21T06:12:43;95602.53;;;6.14;100.00
60433;BME280;46286;48.098;11.590;2023-03-21T06:15:09;95605.78;;;6.21;100.00
60433;BME280;46286;48.098;11.590;2023-03-21T06:17:35;95603.22;;;6.26;100.00
60433;BME280;46286;48.098;11.590;2023-03-21T06:20:01;95604.16;;;6.37;100.00
60433;BME280;46286;48.098;11.590;2023-03-21T06:22:29;95605.44;;;6.34;100.00
60433;BME280;46286;48.098;11.590;2023-03-21T06:24:55;95606.69;;;6.32;100.00
60433;BME280;46286;48.098;11.590;2023-03-21T06:27:21;95604.94;;;6.37;100.00
60433;BME280;46286;48.098;11.590;2023-03-21T06:29:47;95605.56;;;6.45;100.00
60433;BME280;46286;48.098;11.590;2023-03-21T06:32:12;95613.00;;;6.53;100.00
60433;BME280;46286;48.098;11.590;2023-03-21T06:34:38;95607.47;;;6.49;100.00
60433;BME280;46286;48.098;11.590;2023-03-21T06:37:03;95609.38;;;6.54;100.00
60433;BME280;46286;48.098;11.590;2023-03-21T06:39:30;95611.56;;;6.62;100.00
60433;BME280;46286;48.098;11.590;2023-03-21T06:41:56;95607.44;;;6.66;100.00
60433;BME280;46286;48.098;11.590;2023-03-21T06:44:22;95613.97;;;6.86;100.00
60433;BME280;46286;48.098;11.590;2023-03-21T06:46:49;95617.84;;;6.83;100.00
60433;BME280;46286;48.098;11.590;2023-03-21T06:49:15;95620.22;;;6.85;100.00
60433;BME280;46286;48.098;11.590;2023-03-21T06:51:41;95606.25;;;6.96;100.00
60433;BME280;46286;48.098;11.590;2023-03-21T06:54:07;95625.03;;;6.93;100.00
60433;BME280;46286;48.098;11.590;2023-03-21T06:56:33;95622.00;;;7.01;100.00
60433;BME280;46286;48.098;11.590;2023-03-21T06:58:58;95617.88;;;7.05;100.00
60433;BME280;46286;48.098;11.590;2023-03-21T07:01:24;95614.81;;;7.14;100.00
60433;BME280;46286;48.098;11.590;2023-03-21T07:03:55;95613.28;;;7.18;100.00
60433;BME280;46286;48.098;11.590;2023-03-21T07:06:22;95617.53;;;7.24;100.00
60433;BME280;46286;48.098;11.590;2023-03-21T07:08:51;95612.38;;;7.29;100.00
60433;BME280;46286;48.098;11.590;2023-03-21T07:11:18;95610.34;;;7.36;100.00
60433;BME280;46286;48.098;11.590;2023-03-21T07:13:43;95612.03;;;7.48;100.00
60433;BME280;46286;48.098;11.590;2023-03-21T07:16:09;95614.22;;;7.56;100.00
60433;BME280;46286;48.098;11.590;2023-03-21T07:18:35;95609.84;;;7.67;100.00
60433;BME280;46286;48.098;11.590;2023-03-21T07:21:01;95613.91;;;7.79;100.00
60433;BME280;46286;48.098;11.590;2023-03-21T07:23:26;95616.09;;;7.88;100.00
60433;BME280;46286;48.098;11.590;2023-03-21T07:25:53;95614.00;;;7.90;100.00
60433;BME280;46286;48.098;11.590;2023-03-21T07:28:19;95616.09;;;7.88;100.00
60433;BME280;46286;48.098;11.590;2023-03-21T07:30:54;95612.50;;;7.99;100.00
60433;BME280;46286;48.098;11.590;2023-03-21T07:33:20;95616.16;;;7.98;100.00
60433;BME280;46286;48.098;11.590;2023-03-21T07:35:51;95611.00;;;8.08;100.00
60433;BME280;46286;48.098;11.590;2023-03-21T07:38:18;95614.75;;;8.18;100.00
60433;BME280;46286;48.098;11.590;2023-03-21T07:40:45;95616.41;;;8.29;100.00
60433;BME280;46286;48.098;11.590;2023-03-21T07:43:10;95617.97;;;8.30;100.00
60433;BME280;46286;48.098;11.590;2023-03-21T07:45:36;95618.97;;;8.24;100.00
60433;BME280;46286;48.098;11.590;2023-03-21T07:48:02;95617.50;;;8.38;100.00
60433;BME280;46286;48.098;11.590;2023-03-21T07:50:28;95617.56;;;8.43;100.00
60433;BME280;46286;48.098;11.590;2023-03-21T07:52:53;95615.97;;;8.42;100.00
60433;BME280;46286;48.098;11.590;2023-03-21T07:55:19;95613.81;;;8.34;100.00
60433;BME280;46286;48.098;11.590;2023-03-21T07:57:45;95617.06;;;8.46;100.00
60433;BME280;46286;48.098;11.590;2023-03-21T08:00:14;95618.28;;;8.76;100.00
60433;BME280;46286;48.098;11.590;2023-03-21T08:02:54;95618.72;;;8.63;100.00
60433;BME280;46286;48.098;11.590;2023-03-21T08:05:27;95623.03;;;8.84;100.00
60433;BME280;46286;48.098;11.590;2023-03-21T08:07:53;95610.47;;;8.87;100.00
60433;BME280;46286;48.098;11.590;2023-03-21T08:10:19;95617.47;;;8.71;100.00
60433;BME280;46286;48.098;11.590;2023-03-21T08:12:45;95611.16;;;8.66;100.00
60433;BME280;46286;48.098;11.590;2023-03-21T08:15:12;95617.22;;;8.77;100.00
60433;BME280;46286;48.098;11.590;2023-03-21T08:17:38;95625.66;;;8.79;100.00
60433;BME280;46286;48.098;11.590;2023-03-21T08:20:06;95620.97;;;8.92;100.00
60433;BME280;46286;48.098;11.590;2023-03-21T08:22:36;95616.19;;;8.78;100.00
60433;BME280;46286;48.098;11.590;2023-03-21T08:25:03;95617.22;;;8.77;100.00
60433;BME280;46286;48.098;11.590;2023-03-21T08:27:31;95621.97;;;8.80;100.00
60433;BME280;46286;48.098;11.590;2023-03-21T08:29:57;95608.06;;;8.80;100.00
60433;BME280;46286;48.098;11.590;2023-03-21T08:32:23;95613.44;;;9.06;100.00
60433;BME280;46286;48.098;11.590;2023-03-21T08:35:00;95610.56;;;9.07;100.00
60433;BME280;46286;48.098;11.590;2023-03-21T08:37:27;95604.25;;;9.13;100.00
60433;BME280;46286;48.098;11.590;2023-03-21T08:39:53;95596.88;;;9.00;100.00
60433;BME280;46286;48.098;11.590;2023-03-21T08:42:19;95604.44;;;8.91;100.00
60433;BME280;46286;48.098;11.590;2023-03-21T08:44:45;95612.06;;;8.93;100.00
60433;BME280;46286;48.098;11.590;2023-03-21T08:47:11;95599.00;;;9.13;100.00
60433;BME280;46286;48.098;11.590;2023-03-21T08:49:37;95604.88;;;9.41;100.00
60433;BME280;46286;48.098;11.590;2023-03-21T08:52:03;95612.81;;;9.67;100.00
60433;BME280;46286;48.098;11.590;2023-03-21T08:54:28;95609.13;;;9.78;100.00
60433;BME280;46286;48.098;11.590;2023-03-21T08:56:54;95612.28;;;9.60;100.00
60433;BME280;46286;48.098;11.590;2023-03-21T08:59:20;95603.84;;;9.58;100.00
60433;BME280;46286;48.098;11.590;2023-03-21T09:01:45;95604.38;;;9.54;100.00
60433;BME280;46286;48.098;11.590;2023-03-21T09:04:11;95602.31;;;9.77;100.00
60433;BME280;46286;48.098;11.590;2023-03-21T09:06:37;95593.13;;;9.95;100.00
60433;BME280;46286;48.098;11.590;2023-03-21T09:09:05;95597.59;;;9.89;100.00
60433;BME280;46286;48.098;11.590;2023-03-21T09:11:33;95594.44;;;9.82;100.00
60433;BME280;46286;48.098;11.590;2023-03-21T09:13:59;95586.56;;;9.87;100.00
60433;BME280;46286;48.098;11.590;2023-03-21T09:16:24;95593.38;;;10.09;100.00
60433;BME280;46286;48.098;11.590;2023-03-21T09:18:50;95592.06;;;10.48;100.00
60433;BME280;46286;48.098;11.590;2023-03-21T09:21:21;95579.72;;;10.17;100.00
60433;BME280;46286;48.098;11.590;2023-03-21T09:23:48;95588.38;;;10.28;100.00
60433;BME280;46286;48.098;11.590;2023-03-21T09:26:18;95591.28;;;10.11;100.00
60433;BME280;46286;48.098;11.590;2023-03-21T09:28:44;95588.66;;;10.11;100.00
60433;BME280;46286;48.098;11.590;2023-03-21T09:31:11;95583.91;;;10.44;100.00
60433;BME280;46286;48.098;11.590;2023-03-21T09:33:39;95587.56;;;10.64;100.00
60433;BME280;46286;48.098;11.590;2023-03-21T09:36:06;95578.66;;;10.54;100.00
60433;BME280;46286;48.098;11.590;2023-03-21T09:38:36;95578.66;;;10.54;100.00
60433;BME280;46286;48.098;11.590;2023-03-21T09:43:55;95591.88;;;11.04;100.00
60433;BME280;46286;48.098;11.590;2023-03-21T09:47:26;95587.94;;;11.02;100.00
60433;BME280;46286;48.098;11.590;2023-03-21T09:49:34;95570.78;;;11.15;100.00
60433;BME280;46286;48.098;11.590;2023-03-21T09:52:08;95580.41;;;11.35;100.00
60433;BME280;46286;48.098;11.590;2023-03-21T09:54:39;95579.91;;;11.38;100.00
60433;BME280;46286;48.098;11.590;2023-03-21T09:57:33;95577.56;;;11.31;100.00
60433;BME280;46286;48.098;11.590;2023-03-21T10:00:06;95584.88;;;11.84;100.00
60433;BME280;46286;48.098;11.590;2023-03-21T10:02:38;95582.53;;;11.38;100.00
60433;BME280;46286;48.098;11.590;2023-03-21T10:05:12;95581.22;;;11.75;100.00
60433;BME280;46286;48.098;11.590;2023-03-21T10:07:45;95577.50;;;11.81;100.00
60433;BME280;46286;48.098;11.590;2023-03-21T10:10:16;95574.13;;;11.75;100.00
60433;BME280;46286;48.098;11.590;2023-03-21T10:12:44;95570.97;;;12.08;100.00
60433;BME280;46286;48.098;11.590;2023-03-21T10:15:15;95563.69;;;11.55;100.00
60433;BME280;46286;48.098;11.590;2023-03-21T10:17:46;95560.66;;;11.77;100.00
60433;BME280;46286;48.098;11.590;2023-03-21T10:20:43;95565.84;;;11.87;100.00
60433;BME280;46286;48.098;11.590;2023-03-21T10:23:14;95568.00;;;11.85;100.00
60433;BME280;46286;48.098;11.590;2023-03-21T10:25:48;95553.25;;;11.79;100.00
60433;BME280;46286;48.098;11.590;2023-03-21T10:28:20;95561.06;;;11.94;100.00
60433;BME280;46286;48.098;11.590;2023-03-21T10:30:50;95553.19;;;12.48;100.00
60433;BME280;46286;48.098;11.590;2023-03-21T10:33:19;95546.09;;;12.19;100.00
60433;BME280;46286;48.098;11.590;2023-03-21T10:35:55;95547.66;;;12.20;100.00
60433;BME280;46286;48.098;11.590;2023-03-21T10:38:24;95550.16;;;12.84;100.00
60433;BME280;46286;48.098;11.590;2023-03-21T10:40:50;95545.56;;;12.71;98.92
60433;BME280;46286;48.098;11.590;2023-03-21T10:43:29;95546.78;;;12.78;98.72
60433;BME280;46286;48.098;11.590;2023-03-21T10:45:56;95536.44;;;12.34;100.00
60433;BME280;46286;48.098;11.590;2023-03-21T10:48:22;95529.63;;;12.33;100.00
60433;BME280;46286;48.098;11.590;2023-03-21T10:50:51;95533.88;;;12.77;100.00
60433;BME280;46286;48.098;11.590;2023-03-21T10:53:28;95527.00;;;13.19;93.58
60433;BME280;46286;48.098;11.590;2023-03-21T10:55:57;95531.19;;;12.82;90.65
60433;BME280;46286;48.098;11.590;2023-03-21T10:58:28;95525.06;;;13.06;95.95
60433;BME280;46286;48.098;11.590;2023-03-21T11:01:00;95527.44;;;13.64;89.23
60433;BME280;46286;48.098;11.590;2023-03-21T11:03:38;95519.81;;;13.44;90.15
60433;BME280;46286;48.098;11.590;2023-03-21T11:08:59;95522.53;;;13.39;86.75
60433;BME280;46286;48.098;11.590;2023-03-21T11:11:28;95516.81;;;13.69;87.71
60433;BME280;46286;48.098;11.590;2023-03-21T11:14:02;95518.66;;;14.63;77.68
60433;BME280;46286;48.098;11.590;2023-03-21T11:16:40;95518.91;;;14.33;75.78
60433;BME280;46286;48.098;11.590;2023-03-21T11:19:13;95520.88;;;14.42;77.83
60433;BME280;46286;48.098;11.590;2023-03-21T11:21:42;95508.34;;;14.75;76.40
60433;BME280;46286;48.098;11.590;2023-03-21T11:24:13;95506.91;;;15.79;73.46
60433;BME280;46286;48.098;11.590;2023-03-21T11:26:41;95506.16;;;14.49;71.98
60433;BME280;46286;48.098;11.590;2023-03-21T11:29:25;95502.84;;;14.71;72.28
60433;BME280;46286;48.098;11.590;2023-03-21T11:31:52;95493.84;;;15.68;67.56
60433;BME280;46286;48.098;11.590;2023-03-21T11:34:26;95488.22;;;16.47;64.88
60433;BME280;46286;48.098;11.590;2023-03-21T11:36:58;95485.00;;;16.76;63.10
60433;BME280;46286;48.098;11.590;2023-03-21T11:39:32;95480.06;;;18.44;58.28
60433;BME280;46286;48.098;11.590;2023-03-21T11:41:58;95481.19;;;20.00;50.45
60433;BME280;46286;48.098;11.590;2023-03-21T11:44:29;95469.94;;;20.06;50.44
60433;BME280;46286;48.098;11.590;2023-03-21T11:46:55;95474.34;;;18.55;50.51
60433;BME280;46286;48.098;11.590;2023-03-21T11:49:22;95464.16;;;18.27;52.08
60433;BME280;46286;48.098;11.590;2023-03-21T11:57:49;95454.25;;;19.71;48.10
60433;BME280;46286;48.098;11.590;2023-03-21T12:00:25;95452.94;;;20.23;43.95
60433;BME280;46286;48.098;11.590;2023-03-21T12:05:51;95439.16;;;18.70;50.89
60433;BME280;46286;48.098;11.590;2023-03-21T12:10:57;95417.31;;;23.49;37.20
60433;BME280;46286;48.098;11.590;2023-03-21T12:13:53;95410.41;;;20.18;42.22
60433;BME280;46286;48.098;11.590;2023-03-21T12:27:24;95398.50;;;19.03;47.35
60433;BME280;46286;48.098;11.590;2023-03-21T12:32:47;95401.47;;;22.69;37.77
60433;BME280;46286;48.098;11.590;2023-03-21T12:38:12;95391.66;;;21.49;36.99
60433;BME280;46286;48.098;11.590;2023-03-21T12:40:49;95390.25;;;21.11;38.94
60433;BME280;46286;48.098;11.590;2023-03-21T12:46:03;95389.69;;;20.52;37.79
60433;BME280;46286;48.098;11.590;2023-03-21T12:48:38;95391.41;;;21.67;37.36
60433;BME280;46286;48.098;11.590;2023-03-21T12:51:13;95373.50;;;23.25;32.91
60433;BME280;46286;48.098;11.590;2023-03-21T12:56:10;95373.66;;;23.32;32.70
60433;BME280;46286;48.098;11.590;2023-03-21T12:59:02;95360.78;;;21.68;35.68
60433;BME280;46286;48.098;11.590;2023-03-21T13:01:31;95358.50;;;23.44;33.02
60433;BME280;46286;48.098;11.590;2023-03-21T13:04:13;95351.22;;;25.28;32.28
60433;BME280;46286;48.098;11.590;2023-03-21T13:06:42;95348.41;;;26.44;28.49
60433;BME280;46286;48.098;11.590;2023-03-21T13:09:15;95351.19;;;24.10;30.65
60433;BME280;46286;48.098;11.590;2023-03-21T13:11:45;95340.53;;;23.91;31.57
60433;BME280;46286;48.098;11.590;2023-03-21T13:14:25;95341.00;;;22.72;33.60
60433;BME280;46286;48.098;11.590;2023-03-21T13:16:55;95331.50;;;24.83;30.56
60433;BME280;46286;48.098;11.590;2023-03-21T13:19:39;95331.09;;;24.54;30.94
60433;BME280;46286;48.098;11.590;2023-03-21T13:22:26;95328.81;;;23.56;31.89
60433;BME280;46286;48.098;11.590;2023-03-21T13:25:04;95328.53;;;22.28;30.24
60433;BME280;46286;48.098;11.590;2023-03-21T13:27:34;95332.63;;;19.37;35.92
60433;BME280;46286;48.098;11.590;2023-03-21T13:30:04;95329.38;;;18.56;37.78
60433;BME280;46286;48.098;11.590;2023-03-21T13:32:39;95327.59;;;19.02;39.46
60433;BME280;46286;48.098;11.590;2023-03-21T13:35:32;95324.59;;;17.80;41.29
60433;BME280;46286;48.098;11.590;2023-03-21T13:38:19;95323.59;;;18.96;39.46
60433;BME280;46286;48.098;11.590;2023-03-21T13:41:08;95319.78;;;20.25;38.51
60433;BME280;46286;48.098;11.590;2023-03-21T13:46:15;95312.34;;;19.24;40.59
60433;BME280;46286;48.098;11.590;2023-03-21T13:51:43;95317.09;;;19.76;40.02
60433;BME280;46286;48.098;11.590;2023-03-21T13:56:58;95308.38;;;18.75;39.18
60433;BME280;46286;48.098;11.590;2023-03-21T14:04:28;95316.41;;;17.86;40.52
60433;BME280;46286;48.098;11.590;2023-03-21T14:07:05;95315.25;;;17.74;41.23
60433;BME280;46286;48.098;11.590;2023-03-21T14:09:38;95307.38;;;17.30;41.73
60433;BME280;46286;48.098;11.590;2023-03-21T14:12:11;95314.88;;;17.84;40.97
60433;BME280;46286;48.098;11.590;2023-03-21T14:14:45;95310.53;;;17.71;42.26
60433;BME280;46286;48.098;11.590;2023-03-21T14:17:33;95313.38;;;17.66;41.76
60433;BME280;46286;48.098;11.590;2023-03-21T14:20:04;95309.75;;;17.71;42.98